Schedule Details


Flight Number: CTN425
Departure: Duesseldorf (EDDL) at 16:40
Arrival: Cilipi (LDDU) at 18:40
Route: DODEN Y853 BOMBI T104 WLD UM867 VAROB DCT GIMIX DCT ROKSA UY450 NERRA

Weather Information
EDDL 251820Z 35006KT CAVOK 29/15 Q1018 NOSIG
LDDU 251800Z 03014KT 340V080 CAVOK 30/12 Q1015 NOSIG
Schedule Frequency

Route Map